Terminal Aerodrome Forecast
Issued by NWS

Home | Current Version | Previous Version | Graphics & Text | Print | Product List | Glossary On
Versions: 1 2 3 4 5 6 7 8 9 10 11 12 13 14 15 16 17 18 19 20 21 22 23 24 25 26 27 28 29 30 31 32 33 34 35 36 37 38 39 40 41 42 43 44 45 46
149
FTUS43 KLOT 152320
TAFGYY
TAF
KGYY 152320Z 1600/1624 23011G17KT P6SM -SN SCT025 OVC040
     FM160300 22007KT P6SM SCT030 BKN080
     FM162100 16007KT P6SM FEW150=

USA.gov is the U.S. government's official web portal to all federal, state and local government web resources and services.